Time;durP1;ratioP1;P1;durP2;ratioP2;P2;SDS_P1;SDS_P2;PMS_P1;PMS_P2;Temp;Humidity;BMP_temperature;BMP_pressure;BME280_temperature;BME280_humidity;BME280_pressure;Samples;Min_cycle;Max_cycle;Signal;HPM_P1;HPM_P2
2023/11/20 00:01:49;;;;;;;5.47;2.90;;;;;;;;;;5006282;28;20026;-58
2023/11/20 00:04:15;;;;;;;5.45;2.70;;;;;;;;;;5007291;28;20500;-58
2023/11/20 00:06:41;;;;;;;5.07;2.58;;;;;;;;;;5005333;28;20050;-58
2023/11/20 00:09:08;;;;;;;8.98;2.70;;;;;;;;;;5007183;28;20041;-57
2023/11/20 00:11:34;;;;;;;8.02;2.95;;;;;;;;;;5005960;28;20056;-59
2023/11/20 00:14:00;;;;;;;5.60;2.90;;;;;;;;;;5011607;28;20034;-58
2023/11/20 00:16:27;;;;;;;10.90;3.17;;;;;;;;;;5007811;28;20042;-59
2023/11/20 00:18:53;;;;;;;7.43;2.92;;;;;;;;;;5008738;28;20045;-59
2023/11/20 00:21:19;;;;;;;6.28;2.88;;;;;;;;;;5009065;28;20045;-59
2023/11/20 00:23:45;;;;;;;7.30;2.90;;;;;;;;;;5007345;28;20523;-57
2023/11/20 00:26:14;;;;;;;9.80;3.58;;;;;;;;;;4988748;28;20060;-59
2023/11/20 00:28:44;;;;;;;11.13;2.90;;;;;;;;;;5007562;28;20555;-58
2023/11/20 00:31:16;;;;;;;;;;;;;;;;;;5009104;28;20399;-59
2023/11/20 00:33:43;;;;;;;13.55;2.50;;;;;;;;;;5025026;28;19924;-58
2023/11/20 00:36:09;;;;;;;10.98;2.92;;;;;;;;;;5006240;28;20034;-58
2023/11/20 00:38:36;;;;;;;9.95;2.70;;;;;;;;;;5013467;28;20052;-57
2023/11/20 00:41:02;;;;;;;13.23;3.28;;;;;;;;;;5010078;28;20113;-56
2023/11/20 00:43:28;;;;;;;13.45;2.83;;;;;;;;;;5008871;28;20033;-59
2023/11/20 00:45:55;;;;;;;13.50;2.33;;;;;;;;;;5022858;28;20045;-58
2023/11/20 00:48:21;;;;;;;13.20;2.83;;;;;;;;;;5010835;28;20037;-58
2023/11/20 00:50:47;;;;;;;10.40;2.65;;;;;;;;;;5009238;28;20045;-57
2023/11/20 00:53:13;;;;;;;13.98;2.40;;;;;;;;;;5009670;28;20057;-58
2023/11/20 00:55:39;;;;;;;11.90;2.33;;;;;;;;;;5009185;28;20041;-57
2023/11/20 00:58:05;;;;;;;10.88;2.40;;;;;;;;;;5012918;28;20053;-57
2023/11/20 01:00:32;;;;;;;9.68;2.40;;;;;;;;;;5009910;28;20642;-58
2023/11/20 01:02:59;;;;;;;9.43;2.53;;;;;;;;;;4996732;28;20506;-58
2023/11/20 01:05:25;;;;;;;12.18;2.10;;;;;;;;;;4989453;28;20046;-58
2023/11/20 01:07:51;;;;;;;12.57;2.47;;;;;;;;;;5010838;28;20053;-58
2023/11/20 01:10:17;;;;;;;8.02;2.67;;;;;;;;;;5011308;28;20507;-59
2023/11/20 01:12:43;;;;;;;14.48;2.33;;;;;;;;;;5010562;28;20057;-59
2023/11/20 01:15:10;;;;;;;9.57;2.50;;;;;;;;;;5011540;28;20030;-56
2023/11/20 01:17:36;;;;;;;6.57;2.30;;;;;;;;;;5007109;28;20487;-59
2023/11/20 01:20:03;;;;;;;8.65;3.38;;;;;;;;;;4992787;28;20047;-58
2023/11/20 01:22:30;;;;;;;9.80;2.45;;;;;;;;;;5011328;28;20498;-57
2023/11/20 01:24:56;;;;;;;9.75;2.10;;;;;;;;;;5007264;28;20057;-58
2023/11/20 01:27:22;;;;;;;11.18;2.22;;;;;;;;;;5007090;28;20037;-58
2023/11/20 01:29:49;;;;;;;23.33;3.15;;;;;;;;;;5008766;28;20042;-58
2023/11/20 01:32:15;;;;;;;15.93;2.95;;;;;;;;;;5006773;28;20056;-58
2023/11/20 01:34:41;;;;;;;14.52;2.38;;;;;;;;;;5007232;28;20033;-58
2023/11/20 01:37:09;;;;;;;10.52;2.13;;;;;;;;;;5007629;28;20057;-59
2023/11/20 01:39:38;;;;;;;11.43;2.55;;;;;;;;;;4989590;28;20045;-59
2023/11/20 01:42:05;;;;;;;10.82;2.15;;;;;;;;;;5010102;28;20387;-58
2023/11/20 01:44:31;;;;;;;12.35;3.05;;;;;;;;;;5013332;28;20038;-58
2023/11/20 01:46:59;;;;;;;8.93;2.03;;;;;;;;;;5009601;28;20026;-58
2023/11/20 01:49:27;;;;;;;18.25;1.98;;;;;;;;;;4993258;28;20049;-58
2023/11/20 01:51:53;;;;;;;12.07;2.08;;;;;;;;;;5006095;28;20042;-58
2023/11/20 01:54:20;;;;;;;6.70;1.75;;;;;;;;;;4995017;28;20467;-57
2023/11/20 01:56:47;;;;;;;13.15;2.20;;;;;;;;;;4988800;28;20046;-57
2023/11/20 01:59:16;;;;;;;8.05;2.10;;;;;;;;;;4993444;28;20050;-58
2023/11/20 02:01:43;;;;;;;12.80;2.17;;;;;;;;;;5022186;28;20045;-58
2023/11/20 02:04:10;;;;;;;10.48;2.25;;;;;;;;;;5007714;28;20110;-59
2023/11/20 02:06:37;;;;;;;20.13;3.55;;;;;;;;;;5022122;28;20030;-59
2023/11/20 02:09:04;;;;;;;14.02;2.80;;;;;;;;;;5014455;28;20032;-59
2023/11/20 02:11:30;;;;;;;9.35;2.20;;;;;;;;;;5015651;28;20046;-58
2023/11/20 02:13:57;;;;;;;10.63;2.40;;;;;;;;;;5006255;28;20390;-58
2023/11/20 02:16:24;;;;;;;8.15;2.30;;;;;;;;;;4994706;28;20049;-59
2023/11/20 02:18:52;;;;;;;8.07;2.28;;;;;;;;;;4989430;28;21500;-58
2023/11/20 02:21:18;;;;;;;9.18;2.30;;;;;;;;;;4987780;28;20058;-59
2023/11/20 02:23:44;;;;;;;6.32;2.35;;;;;;;;;;5011371;28;20041;-57
2023/11/20 02:26:32;;;;;;;13.10;2.33;;;;;;;;;;5010022;28;20029;-57
2023/11/20 02:29:13;;;;;;;14.70;2.75;;;;;;;;;;5005108;28;20041;-58
2023/11/20 02:31:41;;;;;;;13.77;2.60;;;;;;;;;;5011797;28;20060;-57
2023/11/20 02:34:07;;;;;;;12.55;2.60;;;;;;;;;;4994068;28;20054;-58
2023/11/20 02:36:33;;;;;;;8.50;2.47;;;;;;;;;;4992166;28;20045;-57
2023/11/20 02:39:01;;;;;;;10.60;2.45;;;;;;;;;;5013591;28;20042;-59
2023/11/20 02:41:27;;;;;;;7.88;2.25;;;;;;;;;;5010117;28;20283;-57
2023/11/20 02:43:53;;;;;;;14.02;2.90;;;;;;;;;;5015042;28;20525;-58
2023/11/20 02:46:19;;;;;;;11.85;2.35;;;;;;;;;;4996375;28;20505;-59
2023/11/20 02:48:45;;;;;;;11.25;2.60;;;;;;;;;;5015599;28;20612;-58
2023/11/20 02:51:11;;;;;;;13.55;2.50;;;;;;;;;;4995626;28;20076;-58
2023/11/20 02:53:38;;;;;;;7.53;2.50;;;;;;;;;;5011148;28;20391;-58
2023/11/20 02:56:05;;;;;;;11.65;3.20;;;;;;;;;;5012067;28;20053;-59
2023/11/20 02:58:31;;;;;;;14.60;2.95;;;;;;;;;;5013087;28;20046;-58
2023/11/20 03:00:57;;;;;;;9.93;2.83;;;;;;;;;;5015521;28;20503;-58
2023/11/20 03:03:23;;;;;;;7.72;2.20;;;;;;;;;;5013117;28;20029;-58
2023/11/20 03:05:49;;;;;;;9.75;2.92;;;;;;;;;;5013170;28;20084;-57
2023/11/20 03:08:15;;;;;;;8.68;2.80;;;;;;;;;;5009387;28;20054;-58
2023/11/20 03:10:41;;;;;;;17.50;3.30;;;;;;;;;;5013141;28;20053;-59
2023/11/20 03:13:07;;;;;;;7.38;3.03;;;;;;;;;;5014611;28;20060;-57
2023/11/20 03:15:33;;;;;;;10.80;2.72;;;;;;;;;;5015735;28;20057;-56
2023/11/20 03:18:00;;;;;;;8.02;2.30;;;;;;;;;;5013058;28;20036;-57
2023/11/20 03:20:26;;;;;;;7.57;2.78;;;;;;;;;;5015027;28;20064;-58
2023/11/20 03:22:52;;;;;;;10.73;2.88;;;;;;;;;;5013547;28;20037;-58
2023/11/20 03:25:18;;;;;;;9.20;3.03;;;;;;;;;;5009386;28;20041;-59
2023/11/20 03:27:44;;;;;;;18.88;3.35;;;;;;;;;;4995194;28;20049;-58
2023/11/20 03:30:10;;;;;;;7.65;2.65;;;;;;;;;;5009994;28;20060;-59
2023/11/20 03:32:37;;;;;;;11.32;2.72;;;;;;;;;;4992019;28;20053;-57
2023/11/20 03:35:06;;;;;;;9.27;2.55;;;;;;;;;;5024347;28;20042;-57
2023/11/20 03:37:34;;;;;;;7.93;2.67;;;;;;;;;;5015647;28;20042;-59
2023/11/20 03:40:00;;;;;;;10.23;2.50;;;;;;;;;;5011556;28;20042;-57
2023/11/20 03:42:26;;;;;;;10.07;2.67;;;;;;;;;;5006971;28;20030;-57
2023/11/20 03:44:52;;;;;;;9.25;2.60;;;;;;;;;;5010425;28;20495;-59
2023/11/20 03:47:18;;;;;;;10.30;3.00;;;;;;;;;;4991677;28;20053;-58
2023/11/20 03:49:44;;;;;;;13.88;2.47;;;;;;;;;;5023547;28;20545;-57
2023/11/20 03:52:10;;;;;;;15.18;2.67;;;;;;;;;;4994371;28;20410;-59
2023/11/20 03:54:36;;;;;;;13.98;3.20;;;;;;;;;;5011696;28;20049;-59
2023/11/20 03:57:03;;;;;;;13.35;3.65;;;;;;;;;;5014268;28;20033;-59
2023/11/20 03:59:29;;;;;;;16.13;3.55;;;;;;;;;;5010517;28;20046;-58
2023/11/20 04:01:55;;;;;;;14.85;3.00;;;;;;;;;;5008347;28;21512;-58
2023/11/20 04:04:21;;;;;;;13.57;2.70;;;;;;;;;;5016873;28;20029;-58
2023/11/20 04:06:48;;;;;;;10.18;2.90;;;;;;;;;;4995737;28;20034;-58
2023/11/20 04:09:14;;;;;;;10.65;4.05;;;;;;;;;;5012339;28;20042;-58
2023/11/20 04:11:40;;;;;;;11.40;3.05;;;;;;;;;;5010827;28;20033;-58
2023/11/20 04:14:06;;;;;;;8.25;3.10;;;;;;;;;;5015203;28;20052;-59
2023/11/20 04:16:36;;;;;;;14.73;3.08;;;;;;;;;;5007325;28;20495;-56
2023/11/20 04:19:03;;;;;;;8.65;2.80;;;;;;;;;;5011861;28;20045;-58
2023/11/20 04:21:31;;;;;;;23.10;6.75;;;;;;;;;;5011590;28;20034;-57
2023/11/20 04:23:58;;;;;;;13.48;4.00;;;;;;;;;;5011632;28;20483;-59
2023/11/20 04:26:24;;;;;;;11.70;2.95;;;;;;;;;;5011894;28;20623;-58
2023/11/20 04:28:50;;;;;;;15.82;3.08;;;;;;;;;;5011728;28;20048;-57
2023/11/20 04:31:17;;;;;;;9.63;2.75;;;;;;;;;;5009776;28;20052;-58
2023/11/20 04:33:43;;;;;;;14.57;2.60;;;;;;;;;;5008144;28;20053;-56
2023/11/20 04:36:10;;;;;;;12.52;3.20;;;;;;;;;;5012249;28;20042;-58
2023/11/20 04:38:37;;;;;;;13.13;3.00;;;;;;;;;;5010740;28;20053;-58
2023/11/20 04:41:05;;;;;;;13.20;2.90;;;;;;;;;;5018453;28;20033;-58
2023/11/20 04:43:32;;;;;;;10.57;2.90;;;;;;;;;;5017402;28;20037;-58
2023/11/20 04:45:59;;;;;;;17.42;3.42;;;;;;;;;;4995505;28;20494;-57
2023/11/20 04:48:25;;;;;;;12.23;2.95;;;;;;;;;;5013486;28;20050;-58
2023/11/20 04:50:52;;;;;;;10.85;3.50;;;;;;;;;;5006778;28;20068;-58
2023/11/20 04:53:20;;;;;;;10.80;3.40;;;;;;;;;;5010321;28;20046;-58
2023/11/20 04:55:46;;;;;;;11.63;3.10;;;;;;;;;;5006778;28;20427;-59
2023/11/20 04:58:12;;;;;;;13.07;3.42;;;;;;;;;;5008553;28;20038;-57
2023/11/20 05:00:39;;;;;;;22.95;3.92;;;;;;;;;;5013465;28;20030;-57
2023/11/20 05:03:05;;;;;;;16.15;3.00;;;;;;;;;;5009800;28;20037;-58
2023/11/20 05:05:31;;;;;;;14.48;4.05;;;;;;;;;;5012099;28;20611;-58
2023/11/20 05:07:57;;;;;;;16.77;3.45;;;;;;;;;;5010764;28;20033;-58
2023/11/20 05:10:23;;;;;;;11.65;2.80;;;;;;;;;;5008204;28;20037;-58
2023/11/20 05:12:49;;;;;;;10.23;2.60;;;;;;;;;;5007122;28;20061;-58
2023/11/20 05:15:15;;;;;;;6.43;2.38;;;;;;;;;;5008909;28;20050;-58
2023/11/20 05:17:41;;;;;;;15.38;4.15;;;;;;;;;;5008526;28;20052;-60
2023/11/20 05:20:10;;;;;;;13.90;3.13;;;;;;;;;;5012151;28;20034;-57
2023/11/20 05:22:37;;;;;;;12.30;3.38;;;;;;;;;;5008831;28;20058;-58
2023/11/20 05:25:04;;;;;;;20.67;2.80;;;;;;;;;;5007629;28;20060;-58
2023/11/20 05:27:30;;;;;;;16.52;2.67;;;;;;;;;;5008747;28;20052;-59
2023/11/20 05:29:56;;;;;;;17.42;2.88;;;;;;;;;;5009671;28;20037;-58
2023/11/20 05:32:22;;;;;;;20.73;3.17;;;;;;;;;;5012693;28;20053;-57
2023/11/20 05:34:48;;;;;;;18.30;2.60;;;;;;;;;;5014812;28;20406;-57
2023/11/20 05:37:14;;;;;;;12.60;3.47;;;;;;;;;;5011518;28;20046;-59
2023/11/20 05:39:40;;;;;;;12.82;3.03;;;;;;;;;;5010544;28;20519;-59
2023/11/20 05:42:06;;;;;;;13.00;3.33;;;;;;;;;;5013224;28;20037;-59
2023/11/20 05:44:32;;;;;;;18.85;3.60;;;;;;;;;;5008641;28;20041;-58
2023/11/20 05:46:58;;;;;;;19.48;3.63;;;;;;;;;;5007738;28;20034;-59
2023/11/20 05:49:24;;;;;;;16.20;3.47;;;;;;;;;;5010354;28;20041;-57
2023/11/20 05:51:52;;;;;;;9.07;2.97;;;;;;;;;;5006536;28;20049;-59
2023/11/20 05:54:19;;;;;;;12.93;3.08;;;;;;;;;;5009534;28;20056;-58
2023/11/20 05:56:48;;;;;;;24.50;3.97;;;;;;;;;;5009514;28;20030;-58
2023/11/20 05:59:14;;;;;;;12.55;3.00;;;;;;;;;;5015235;28;20507;-59
2023/11/20 06:01:41;;;;;;;20.10;3.00;;;;;;;;;;5013254;28;20129;-58
2023/11/20 06:04:08;;;;;;;18.33;2.53;;;;;;;;;;5008926;28;20042;-59
2023/11/20 06:06:36;;;;;;;11.93;2.65;;;;;;;;;;5020592;28;20056;-59
2023/11/20 06:09:04;;;;;;;16.42;2.80;;;;;;;;;;5016613;28;20037;-58
2023/11/20 06:11:31;;;;;;;10.53;1.93;;;;;;;;;;5015708;28;20034;-58
2023/11/20 06:13:58;;;;;;;12.70;3.22;;;;;;;;;;5014691;28;20672;-58
2023/11/20 06:16:25;;;;;;;14.15;3.13;;;;;;;;;;5002277;28;20037;-59
2023/11/20 06:18:52;;;;;;;11.00;3.17;;;;;;;;;;5010519;28;20057;-59
2023/11/20 06:21:18;;;;;;;21.80;2.47;;;;;;;;;;5014717;28;20038;-59
2023/11/20 06:23:45;;;;;;;14.25;2.80;;;;;;;;;;5020172;28;20060;-58
2023/11/20 06:26:11;;;;;;;10.55;2.10;;;;;;;;;;5013546;28;20056;-59
2023/11/20 06:28:37;;;;;;;7.07;2.20;;;;;;;;;;5011446;28;20079;-58
2023/11/20 06:31:03;;;;;;;19.13;3.35;;;;;;;;;;5018471;28;20041;-58
2023/11/20 06:33:29;;;;;;;19.27;3.25;;;;;;;;;;5018206;28;20586;-57
2023/11/20 06:35:55;;;;;;;11.02;2.67;;;;;;;;;;5012932;28;20041;-57
2023/11/20 06:38:21;;;;;;;8.32;2.22;;;;;;;;;;5012298;28;20046;-58
2023/11/20 06:40:48;;;;;;;11.77;2.85;;;;;;;;;;5011041;28;20053;-59
2023/11/20 06:43:14;;;;;;;11.52;2.67;;;;;;;;;;5017811;28;20053;-58
2023/11/20 06:45:40;;;;;;;12.70;3.50;;;;;;;;;;5015704;28;20053;-58
2023/11/20 06:48:07;;;;;;;11.65;2.50;;;;;;;;;;5014788;28;20542;-57
2023/11/20 06:50:33;;;;;;;6.28;2.47;;;;;;;;;;5014367;28;20049;-59
2023/11/20 06:52:59;;;;;;;17.40;3.20;;;;;;;;;;5009778;28;20037;-59
2023/11/20 06:55:25;;;;;;;14.05;2.53;;;;;;;;;;5013509;28;20498;-57
2023/11/20 06:57:52;;;;;;;12.35;2.70;;;;;;;;;;5015293;28;20049;-57
2023/11/20 07:00:18;;;;;;;14.70;3.22;;;;;;;;;;5009866;28;20061;-59
2023/11/20 07:02:44;;;;;;;16.92;2.70;;;;;;;;;;5019226;28;20041;-59
2023/11/20 07:05:16;;;;;;;13.13;3.20;;;;;;;;;;5013927;28;20033;-59
2023/11/20 07:07:51;;;;;;;19.15;2.75;;;;;;;;;;5007068;28;20450;-58
2023/11/20 07:10:23;;;;;;;11.82;2.22;;;;;;;;;;5025113;28;20026;-59
2023/11/20 07:12:53;;;;;;;8.95;2.05;;;;;;;;;;5012051;28;20048;-58
2023/11/20 07:15:23;;;;;;;13.18;2.10;;;;;;;;;;5010401;28;20411;-59
2023/11/20 07:17:50;;;;;;;12.40;2.85;;;;;;;;;;5016625;28;20064;-58
2023/11/20 07:20:17;;;;;;;12.50;3.20;;;;;;;;;;4994993;28;20046;-58
2023/11/20 07:22:45;;;;;;;15.10;3.40;;;;;;;;;;5014036;28;20041;-57
2023/11/20 07:25:12;;;;;;;10.68;2.90;;;;;;;;;;5011590;28;20033;-57
2023/11/20 07:27:38;;;;;;;11.23;2.28;;;;;;;;;;5015925;28;20491;-58
2023/11/20 07:30:09;;;;;;;9.23;3.00;;;;;;;;;;5013723;28;20038;-58
2023/11/20 07:32:36;;;;;;;10.48;3.30;;;;;;;;;;5017056;28;20040;-58
2023/11/20 07:35:03;;;;;;;11.57;2.30;;;;;;;;;;5012085;28;20419;-59
2023/11/20 07:37:30;;;;;;;11.30;3.72;;;;;;;;;;5016199;28;20040;-58
2023/11/20 07:39:57;;;;;;;9.02;3.17;;;;;;;;;;5010948;28;20049;-58
2023/11/20 07:42:24;;;;;;;11.07;2.80;;;;;;;;;;5010252;28;20517;-58
2023/11/20 07:44:51;;;;;;;15.43;2.97;;;;;;;;;;5016955;28;20034;-58
2023/11/20 07:47:17;;;;;;;9.70;2.05;;;;;;;;;;5013784;28;20411;-58
2023/11/20 07:49:43;;;;;;;9.23;1.90;;;;;;;;;;5015730;28;20053;-58
2023/11/20 07:52:09;;;;;;;10.15;2.25;;;;;;;;;;5018203;28;20053;-58
2023/11/20 07:54:40;;;;;;;11.40;2.22;;;;;;;;;;5001528;28;20408;-58
2023/11/20 07:57:08;;;;;;;11.27;2.10;;;;;;;;;;5001201;28;20034;-59
2023/11/20 07:59:34;;;;;;;11.38;2.83;;;;;;;;;;5007941;28;20380;-59
2023/11/20 08:02:00;;;;;;;11.43;2.45;;;;;;;;;;5004442;28;20050;-59
2023/11/20 08:04:26;;;;;;;9.45;2.45;;;;;;;;;;5004438;28;20049;-59
2023/11/20 08:06:52;;;;;;;13.18;3.17;;;;;;;;;;5006007;28;20103;-58
2023/11/20 08:09:18;;;;;;;13.38;4.45;;;;;;;;;;5002885;28;20454;-58
2023/11/20 08:11:44;;;;;;;19.25;3.05;;;;;;;;;;4999912;28;20050;-58
2023/11/20 08:14:14;;;;;;;9.50;2.33;;;;;;;;;;5006369;28;20058;-60
2023/11/20 08:16:40;;;;;;;;;;;;;;;;;;5000080;28;20518;-59
2023/11/20 08:19:06;;;;;;;10.68;2.30;;;;;;;;;;5003739;28;19914;-58
2023/11/20 08:21:32;;;;;;;13.30;2.50;;;;;;;;;;5005639;28;20058;-58
2023/11/20 08:23:58;;;;;;;9.20;2.00;;;;;;;;;;5003882;28;20045;-57
2023/11/20 08:26:25;;;;;;;11.95;2.78;;;;;;;;;;5003573;28;20045;-58
2023/11/20 08:28:51;;;;;;;9.65;2.78;;;;;;;;;;5005149;28;20033;-59
2023/11/20 08:31:18;;;;;;;13.27;2.58;;;;;;;;;;5005333;28;20049;-59
2023/11/20 08:33:45;;;;;;;12.65;2.20;;;;;;;;;;5003032;28;20066;-58
2023/11/20 08:36:12;;;;;;;9.50;2.10;;;;;;;;;;5003968;28;20076;-58
2023/11/20 08:38:38;;;;;;;17.23;2.50;;;;;;;;;;5006307;28;20061;-59
2023/11/20 08:41:04;;;;;;;10.27;1.95;;;;;;;;;;5011089;28;20644;-58
2023/11/20 08:43:30;;;;;;;8.68;2.25;;;;;;;;;;5010073;28;20046;-57
2023/11/20 08:45:56;;;;;;;12.45;2.00;;;;;;;;;;5018682;28;20045;-58
2023/11/20 08:48:22;;;;;;;11.93;1.95;;;;;;;;;;5017376;28;20052;-58
2023/11/20 08:50:49;;;;;;;10.77;1.88;;;;;;;;;;5019921;28;20487;-59
2023/11/20 08:53:15;;;;;;;11.20;2.80;;;;;;;;;;5015296;28;20036;-58
2023/11/20 08:55:42;;;;;;;10.60;2.00;;;;;;;;;;5008840;28;20048;-57
2023/11/20 08:58:09;;;;;;;10.20;2.45;;;;;;;;;;5010603;28;20030;-59
2023/11/20 09:00:35;;;;;;;9.35;2.97;;;;;;;;;;5015385;28;20052;-59
2023/11/20 09:03:02;;;;;;;8.70;2.20;;;;;;;;;;5007547;28;20050;-59
2023/11/20 09:05:28;;;;;;;10.60;2.30;;;;;;;;;;5014893;28;20037;-57
2023/11/20 09:07:54;;;;;;;15.15;2.42;;;;;;;;;;5009099;28;20038;-58
2023/11/20 09:10:23;;;;;;;8.63;1.90;;;;;;;;;;5015585;28;20049;-58
2023/11/20 09:12:50;;;;;;;15.07;2.43;;;;;;;;;;5014258;28;20056;-59
2023/11/20 09:15:16;;;;;;;9.63;2.15;;;;;;;;;;5015060;28;20187;-58
2023/11/20 09:17:42;;;;;;;7.68;1.70;;;;;;;;;;5012557;28;20045;-59
2023/11/20 09:20:15;;;;;;;10.85;1.95;;;;;;;;;;5009113;28;20038;-60
2023/11/20 09:22:41;;;;;;;10.45;2.10;;;;;;;;;;5008018;28;20418;-58
2023/11/20 09:25:07;;;;;;;15.32;1.95;;;;;;;;;;5005433;28;20026;-60
2023/11/20 09:27:37;;;;;;;14.88;2.40;;;;;;;;;;5012505;28;20230;-59
2023/11/20 09:30:04;;;;;;;7.03;2.40;;;;;;;;;;5017960;28;20042;-58
2023/11/20 09:32:31;;;;;;;13.82;3.58;;;;;;;;;;4997430;28;20033;-58
2023/11/20 09:34:58;;;;;;;10.20;1.80;;;;;;;;;;5006096;28;20173;-59
2023/11/20 09:37:24;;;;;;;13.20;2.58;;;;;;;;;;5009800;28;20045;-59
2023/11/20 09:39:51;;;;;;;12.52;2.28;;;;;;;;;;5010383;28;20056;-59
2023/11/20 09:42:22;;;;;;;12.35;3.90;;;;;;;;;;5015911;28;20037;-59
2023/11/20 09:44:49;;;;;;;11.00;1.88;;;;;;;;;;5004859;28;20042;-59
2023/11/20 09:47:16;;;;;;;8.70;1.80;;;;;;;;;;5008904;28;20423;-59
2023/11/20 09:49:44;;;;;;;7.70;1.88;;;;;;;;;;5001154;28;20050;-59
2023/11/20 09:52:12;;;;;;;12.60;1.80;;;;;;;;;;5008850;28;20033;-59
2023/11/20 09:54:41;;;;;;;8.05;1.17;;;;;;;;;;5008224;28;20255;-60
2023/11/20 09:57:12;;;;;;;8.47;2.23;;;;;;;;;;5005697;28;20053;-58
2023/11/20 09:59:38;;;;;;;6.97;1.60;;;;;;;;;;5004974;28;20494;-58
2023/11/20 10:02:05;;;;;;;7.80;1.50;;;;;;;;;;5002244;28;20446;-58
2023/11/20 10:04:32;;;;;;;10.15;1.15;;;;;;;;;;5005959;28;20079;-58
2023/11/20 10:07:02;;;;;;;9.40;1.65;;;;;;;;;;5012837;28;20054;-58
2023/11/20 10:09:31;;;;;;;5.55;1.33;;;;;;;;;;5014392;28;20036;-58
2023/11/20 10:11:57;;;;;;;10.85;1.58;;;;;;;;;;5009700;28;20042;-58
2023/11/20 10:14:23;;;;;;;10.70;1.70;;;;;;;;;;4987521;28;20061;-58
2023/11/20 10:16:53;;;;;;;9.98;1.92;;;;;;;;;;5002945;28;20037;-58
2023/11/20 10:19:19;;;;;;;7.15;1.40;;;;;;;;;;5011484;28;20579;-58
2023/11/20 10:21:50;;;;;;;6.55;1.23;;;;;;;;;;5004050;28;20046;-57
2023/11/20 10:24:17;;;;;;;8.98;1.38;;;;;;;;;;5006129;28;20029;-59
2023/11/20 10:26:45;;;;;;;12.13;1.50;;;;;;;;;;5005905;28;20038;-59
2023/11/20 10:29:12;;;;;;;11.60;1.73;;;;;;;;;;5008700;28;20426;-58
2023/11/20 10:31:44;;;;;;;8.82;2.05;;;;;;;;;;5004969;28;20033;-60
2023/11/20 10:34:11;;;;;;;10.02;1.30;;;;;;;;;;5011478;28;20056;-60
2023/11/20 10:36:39;;;;;;;10.23;1.90;;;;;;;;;;5010100;28;20050;-58
2023/11/20 10:39:08;;;;;;;7.95;1.55;;;;;;;;;;5006741;28;20117;-58
2023/11/20 10:41:40;;;;;;;9.13;1.30;;;;;;;;;;5005656;28;20053;-58
2023/11/20 10:44:07;;;;;;;6.40;1.15;;;;;;;;;;5008307;28;20048;-58
2023/11/20 10:46:34;;;;;;;8.50;1.35;;;;;;;;;;5012281;28;20045;-59
2023/11/20 10:49:06;;;;;;;6.32;1.40;;;;;;;;;;5010087;28;20061;-57
2023/11/20 10:51:34;;;;;;;6.38;1.23;;;;;;;;;;5013916;28;20030;-58
2023/11/20 10:54:04;;;;;;;5.10;1.10;;;;;;;;;;5010797;28;20053;-58
2023/11/20 10:56:32;;;;;;;9.82;1.80;;;;;;;;;;5009338;28;20081;-59
2023/11/20 10:59:01;;;;;;;9.65;1.63;;;;;;;;;;5010247;28;20052;-58
2023/11/20 11:01:29;;;;;;;7.75;1.25;;;;;;;;;;5007485;28;20037;-58
2023/11/20 11:04:00;;;;;;;9.25;1.90;;;;;;;;;;5009037;28;20045;-58
2023/11/20 11:06:27;;;;;;;23.17;3.20;;;;;;;;;;5008348;28;20034;-59
2023/11/20 11:08:56;;;;;;;7.18;1.08;;;;;;;;;;5009503;28;20030;-58
2023/11/20 11:11:25;;;;;;;11.27;2.10;;;;;;;;;;5008401;28;20056;-58
2023/11/20 11:13:51;;;;;;;6.88;1.40;;;;;;;;;;5007272;28;20046;-58
2023/11/20 11:16:33;;;;;;;7.70;1.50;;;;;;;;;;5008365;28;20033;-59
2023/11/20 11:19:06;;;;;;;5.80;1.30;;;;;;;;;;5010789;28;20379;-58
2023/11/20 11:21:58;;;;;;;7.25;1.73;;;;;;;;;;5007791;28;20402;-58
2023/11/20 11:24:27;;;;;;;8.15;1.58;;;;;;;;;;5012294;28;20046;-58
2023/11/20 11:26:55;;;;;;;4.65;1.17;;;;;;;;;;5011004;28;20427;-58
2023/11/20 11:29:27;;;;;;;7.43;1.27;;;;;;;;;;5017938;28;20034;-58
2023/11/20 11:32:14;;;;;;;7.80;1.40;;;;;;;;;;5010039;28;20045;-59
2023/11/20 11:34:47;;;;;;;7.38;1.27;;;;;;;;;;5010021;28;20048;-59
2023/11/20 11:37:53;;;;;;;5.75;1.20;;;;;;;;;;5010578;28;20044;-59
2023/11/20 11:40:46;;;;;;;8.07;1.15;;;;;;;;;;5010071;28;20037;-58
2023/11/20 11:43:27;;;;;;;5.65;2.00;;;;;;;;;;5009996;28;20521;-57
2023/11/20 11:45:58;;;;;;;4.93;1.25;;;;;;;;;;5010394;28;20414;-58
2023/11/20 11:48:24;;;;;;;4.90;1.17;;;;;;;;;;5010591;28;20044;-58
2023/11/20 11:50:50;;;;;;;4.55;1.05;;;;;;;;;;5009228;28;20057;-57
2023/11/20 11:53:16;;;;;;;7.15;1.17;;;;;;;;;;5013930;28;20490;-60
2023/11/20 11:55:43;;;;;;;3.17;1.00;;;;;;;;;;5009229;28;20518;-59
2023/11/20 11:58:15;;;;;;;5.53;1.10;;;;;;;;;;5011831;28;20054;-59
2023/11/20 12:00:41;;;;;;;4.55;0.93;;;;;;;;;;5010926;28;20037;-59
2023/11/20 12:03:08;;;;;;;4.78;2.00;;;;;;;;;;4974909;28;20499;-59
2023/11/20 12:05:59;;;;;;;6.30;1.98;;;;;;;;;;5010611;28;20030;-59
2023/11/20 12:08:33;;;;;;;3.55;1.38;;;;;;;;;;5007737;28;20037;-60
2023/11/20 12:11:00;;;;;;;5.38;1.13;;;;;;;;;;5008930;28;20046;-58
2023/11/20 12:13:26;;;;;;;5.20;1.00;;;;;;;;;;5009129;28;20415;-57
2023/11/20 12:15:56;;;;;;;3.20;0.70;;;;;;;;;;5008222;28;20415;-57
2023/11/20 12:18:23;;;;;;;;;;;;;;;;;;5015003;28;20422;-59
2023/11/20 12:20:49;;;;;;;4.05;0.80;;;;;;;;;;5012159;28;19920;-58
2023/11/20 12:23:22;;;;;;;2.65;0.50;;;;;;;;;;5008670;28;20037;-57
2023/11/20 12:25:53;;;;;;;3.22;0.70;;;;;;;;;;5013932;28;20049;-59
2023/11/20 12:28:21;;;;;;;1.90;0.88;;;;;;;;;;5005722;28;20057;-58
2023/11/20 12:30:47;;;;;;;3.00;1.10;;;;;;;;;;5008826;28;20414;-56
2023/11/20 12:33:13;;;;;;;4.45;0.70;;;;;;;;;;5011251;28;20034;-57
2023/11/20 12:35:39;;;;;;;4.20;1.27;;;;;;;;;;5008375;28;20057;-56
2023/11/20 12:38:11;;;;;;;2.78;0.93;;;;;;;;;;5009866;28;20038;-57
2023/11/20 12:40:37;;;;;;;1.40;0.70;;;;;;;;;;5009543;28;20056;-57
2023/11/20 12:43:04;;;;;;;1.98;0.90;;;;;;;;;;5011185;28;20410;-57
2023/11/20 12:45:30;;;;;;;2.08;0.80;;;;;;;;;;5009724;28;20041;-56
2023/11/20 12:47:56;;;;;;;4.18;1.05;;;;;;;;;;5007269;28;20053;-57
2023/11/20 12:50:23;;;;;;;4.80;0.95;;;;;;;;;;5008394;28;20041;-57
2023/11/20 12:52:49;;;;;;;4.20;1.00;;;;;;;;;;5009484;28;20049;-58
2023/11/20 12:55:19;;;;;;;3.58;0.95;;;;;;;;;;5008609;28;20066;-58
2023/11/20 12:57:45;;;;;;;3.38;1.05;;;;;;;;;;5012469;28;20053;-57
2023/11/20 13:00:14;;;;;;;3.58;0.90;;;;;;;;;;5009431;28;20048;-57
2023/11/20 13:02:55;;;;;;;4.43;0.90;;;;;;;;;;5007802;28;20045;-58
2023/11/20 13:05:22;;;;;;;4.25;1.20;;;;;;;;;;5009591;28;20497;-57
2023/11/20 13:07:53;;;;;;;4.15;1.10;;;;;;;;;;5013693;28;20048;-57
2023/11/20 13:10:20;;;;;;;4.32;1.10;;;;;;;;;;5007004;28;20050;-59
2023/11/20 13:12:46;;;;;;;4.78;1.10;;;;;;;;;;5014841;28;20044;-56
2023/11/20 13:15:13;;;;;;;5.38;1.30;;;;;;;;;;5007331;28;20178;-60
2023/11/20 13:17:40;;;;;;;3.67;1.30;;;;;;;;;;5009231;28;20495;-57
2023/11/20 13:20:40;;;;;;;8.38;2.80;;;;;;;;;;5010147;28;20038;-58
2023/11/20 13:23:19;;;;;;;7.75;1.30;;;;;;;;;;5006072;28;20049;-58
2023/11/20 13:25:48;;;;;;;5.35;1.38;;;;;;;;;;5008201;28;20503;-58
2023/11/20 13:28:16;;;;;;;4.85;1.02;;;;;;;;;;5008104;28;20049;-58
2023/11/20 13:30:56;;;;;;;7.10;1.23;;;;;;;;;;5014877;28;20037;-58
2023/11/20 13:33:24;;;;;;;4.05;1.50;;;;;;;;;;5008958;28;20026;-58
2023/11/20 13:35:50;;;;;;;6.75;1.70;;;;;;;;;;5011695;28;20041;-59
2023/11/20 13:38:16;;;;;;;7.43;1.65;;;;;;;;;;5009872;28;20409;-58
2023/11/20 13:40:42;;;;;;;5.97;0.90;;;;;;;;;;5014950;28;20051;-58
2023/11/20 13:43:09;;;;;;;3.13;1.50;;;;;;;;;;5004143;28;20054;-58
2023/11/20 13:45:36;;;;;;;4.63;1.10;;;;;;;;;;5014276;28;20037;-58
2023/11/20 13:48:03;;;;;;;3.00;0.90;;;;;;;;;;5008293;28;20041;-58
2023/11/20 13:50:29;;;;;;;4.32;0.82;;;;;;;;;;5007682;28;20064;-57
2023/11/20 13:53:00;;;;;;;6.70;1.02;;;;;;;;;;5007478;28;20045;-58
2023/11/20 13:55:27;;;;;;;4.75;1.08;;;;;;;;;;5002656;28;20041;-57
2023/11/20 13:57:54;;;;;;;3.25;1.45;;;;;;;;;;5011480;28;20061;-58
2023/11/20 14:00:21;;;;;;;2.17;1.13;;;;;;;;;;5007397;28;20029;-57
2023/11/20 14:02:51;;;;;;;3.55;1.00;;;;;;;;;;5008494;28;20038;-58
2023/11/20 14:05:17;;;;;;;2.10;0.93;;;;;;;;;;5009350;28;20042;-57
2023/11/20 14:07:44;;;;;;;3.80;0.95;;;;;;;;;;5008081;28;20050;-57
2023/11/20 14:10:11;;;;;;;3.88;0.60;;;;;;;;;;5006876;28;20060;-56
2023/11/20 14:12:38;;;;;;;4.05;1.67;;;;;;;;;;5010851;28;20050;-57
2023/11/20 14:15:05;;;;;;;2.17;0.70;;;;;;;;;;5013244;28;20050;-58
2023/11/20 14:17:32;;;;;;;7.22;0.70;;;;;;;;;;4990811;28;20411;-58
2023/11/20 14:19:58;;;;;;;4.70;0.73;;;;;;;;;;5009113;28;20049;-56
2023/11/20 14:22:24;;;;;;;4.05;0.90;;;;;;;;;;5007601;28;20049;-57
2023/11/20 14:24:51;;;;;;;3.72;1.10;;;;;;;;;;5007203;28;20034;-58
2023/11/20 14:27:17;;;;;;;4.32;1.08;;;;;;;;;;5010156;28;20045;-58
2023/11/20 14:29:43;;;;;;;2.65;1.00;;;;;;;;;;5011973;28;20410;-58
2023/11/20 14:32:11;;;;;;;3.22;0.90;;;;;;;;;;5010126;28;20068;-58
2023/11/20 14:34:37;;;;;;;3.22;0.95;;;;;;;;;;5015627;28;20033;-58
2023/11/20 14:37:04;;;;;;;3.38;1.10;;;;;;;;;;5011868;28;20507;-56
2023/11/20 14:39:31;;;;;;;2.95;1.00;;;;;;;;;;5012372;28;20038;-57
2023/11/20 14:41:57;;;;;;;3.60;0.95;;;;;;;;;;5011546;28;20060;-57